createdAt,value
2023-01-11T00:00:45.556Z,71.80
2023-01-11T00:03:13.729Z,72.17
2023-01-11T00:05:43.062Z,72.28
2023-01-11T00:08:13.302Z,72.42
2023-01-11T00:10:42.800Z,72.69
2023-01-11T00:13:10.829Z,72.56
2023-01-11T00:15:40.972Z,72.99
2023-01-11T00:18:08.791Z,72.83
2023-01-11T00:20:36.560Z,73.52
2023-01-11T00:23:04.995Z,73.19
2023-01-11T00:25:34.233Z,73.44
2023-01-11T00:28:02.182Z,73.54
2023-01-11T00:30:30.624Z,73.38
2023-01-11T00:32:59.558Z,73.85
2023-01-11T00:35:29.107Z,73.20
2023-01-11T00:37:57.570Z,73.37
2023-01-11T00:40:26.393Z,73.58
2023-01-11T00:43:13.761Z,74.29
2023-01-11T00:45:59.177Z,73.59
2023-01-11T00:48:27.451Z,74.39
2023-01-11T00:50:59.252Z,74.54
2023-01-11T00:53:27.780Z,74.38
2023-01-11T00:55:55.720Z,74.44
2023-01-11T00:58:25.045Z,74.31
2023-01-11T01:00:53.479Z,74.26
2023-01-11T01:03:21.548Z,74.20
2023-01-11T01:05:49.459Z,74.19
2023-01-11T01:08:17.793Z,74.46
2023-01-11T01:10:45.695Z,74.66
2023-01-11T01:13:31.508Z,75.11
2023-01-11T01:16:00.648Z,75.37
2023-01-11T01:18:28.545Z,74.81
2023-01-11T01:20:56.821Z,74.41
2023-01-11T01:23:24.675Z,75.07
2023-01-11T01:25:52.459Z,75.04
2023-01-11T01:28:22.686Z,74.93
2023-01-11T01:30:53.798Z,74.91
2023-01-11T01:33:23.879Z,74.87
2023-01-11T01:35:52.056Z,74.76
2023-01-11T01:38:19.952Z,74.73
2023-01-11T01:40:50.027Z,74.54
2023-01-11T01:43:18.949Z,74.73
2023-01-11T01:45:50.669Z,74.64
2023-01-11T01:48:22.021Z,75.15
2023-01-11T01:50:57.302Z,75.07
2023-01-11T01:53:30.743Z,74.84
2023-01-11T01:56:02.150Z,74.56
2023-01-11T01:58:34.133Z,74.29
2023-01-11T02:01:23.592Z,74.67
2023-01-11T02:03:53.516Z,74.04
2023-01-11T02:06:24.494Z,74.47
2023-01-11T02:09:00.236Z,74.67
2023-01-11T02:11:32.290Z,74.80
2023-01-11T02:14:03.336Z,74.60
2023-01-11T02:16:31.450Z,74.91
2023-01-11T02:19:01.773Z,74.36
2023-01-11T02:21:42.637Z,74.68
2023-01-11T02:24:36.596Z,74.48
2023-01-11T02:27:29.998Z,74.13
2023-01-11T02:30:11.021Z,74.60
2023-01-11T02:32:50.063Z,74.44
2023-01-11T02:35:30.376Z,74.06
2023-01-11T02:38:06.465Z,74.26
2023-01-11T02:40:44.671Z,74.29
2023-01-11T02:43:35.183Z,74.37
2023-01-11T02:46:13.686Z,74.77
2023-01-11T02:48:51.424Z,74.99
2023-01-11T02:51:24.064Z,74.85
2023-01-11T02:53:57.403Z,75.00
2023-01-11T02:56:28.555Z,74.52
2023-01-11T02:58:58.751Z,75.05
2023-01-11T03:01:28.985Z,74.39
2023-01-11T03:03:57.164Z,74.85
2023-01-11T03:06:28.546Z,74.63
2023-01-11T03:09:11.072Z,74.90
2023-01-11T03:12:15.108Z,74.76
2023-01-11T03:14:52.704Z,74.76
2023-01-11T03:17:34.158Z,75.02
2023-01-11T03:20:12.180Z,74.88
2023-01-11T03:22:51.780Z,74.65
2023-01-11T03:25:25.133Z,74.68
2023-01-11T03:27:59.174Z,74.59
2023-01-11T03:30:34.454Z,74.60
2023-01-11T03:33:07.990Z,75.05
2023-01-11T03:35:43.570Z,74.83
2023-01-11T03:38:19.247Z,74.73
2023-01-11T03:40:52.178Z,75.12
2023-01-11T03:43:23.413Z,74.96
2023-01-11T03:45:56.505Z,74.65
2023-01-11T03:48:32.610Z,74.71
2023-01-11T03:51:02.376Z,74.93
2023-01-11T03:53:33.987Z,74.83
2023-01-11T03:56:04.573Z,74.78
2023-01-11T03:58:32.393Z,74.64
2023-01-11T04:01:00.596Z,75.13
2023-01-11T04:03:30.896Z,75.16
2023-01-11T04:06:02.358Z,74.53
2023-01-11T04:08:31.503Z,75.06
2023-01-11T04:10:59.516Z,75.17
2023-01-11T04:13:27.384Z,75.09
2023-01-11T04:15:55.512Z,75.36
2023-01-11T04:18:23.460Z,75.78
2023-01-11T04:20:52.727Z,75.14
2023-01-11T04:23:20.891Z,74.89
2023-01-11T04:25:48.647Z,74.93
2023-01-11T04:28:16.569Z,75.17
2023-01-11T04:30:44.756Z,75.50
2023-01-11T04:33:13.358Z,75.33
2023-01-11T04:35:41.243Z,75.19
2023-01-11T04:38:10.776Z,75.40
2023-01-11T04:40:38.643Z,75.71
2023-01-11T04:43:05.458Z,75.15
2023-01-11T04:45:33.819Z,75.29
2023-01-11T04:48:01.660Z,75.37
2023-01-11T04:50:29.644Z,75.35
2023-01-11T04:52:59.749Z,75.18
2023-01-11T04:55:29.013Z,75.10
2023-01-11T04:57:57.405Z,74.89
2023-01-11T05:00:25.307Z,75.31
2023-01-11T05:02:53.061Z,74.78
2023-01-11T05:05:21.118Z,74.72
2023-01-11T05:07:49.649Z,74.56
2023-01-11T05:10:20.807Z,74.75
2023-01-11T05:12:50.752Z,74.15
2023-01-11T05:15:18.559Z,74.49
2023-01-11T05:17:46.423Z,74.24
2023-01-11T05:20:14.630Z,74.02
2023-01-11T05:22:42.518Z,73.61
2023-01-11T05:25:10.769Z,73.91
2023-01-11T05:27:39.039Z,73.69
2023-01-11T05:30:10.060Z,73.30
2023-01-11T05:32:37.957Z,73.34
2023-01-11T05:35:10.312Z,73.18
2023-01-11T05:37:38.212Z,72.87
2023-01-11T05:40:08.226Z,73.18
2023-01-11T05:42:36.086Z,73.21
2023-01-11T05:45:21.957Z,73.17
2023-01-11T05:47:53.485Z,73.46
2023-01-11T05:50:21.332Z,72.04
2023-01-11T05:52:49.829Z,71.97
2023-01-11T05:55:17.963Z,72.19
2023-01-11T05:57:46.504Z,72.10
2023-01-11T06:00:15.864Z,71.76
2023-01-11T06:02:43.771Z,71.67
2023-01-11T06:05:13.098Z,71.48
2023-01-11T06:07:41.267Z,71.20
2023-01-11T06:10:10.558Z,71.16
2023-01-11T06:12:38.439Z,71.26
2023-01-11T06:15:07.547Z,71.68
2023-01-11T06:17:35.336Z,71.29
2023-01-11T06:20:03.135Z,71.36
2023-01-11T06:22:32.780Z,71.72
2023-01-11T06:25:00.851Z,71.52
2023-01-11T06:27:28.739Z,71.77
2023-01-11T06:29:56.599Z,71.52
2023-01-11T06:32:24.432Z,71.01
2023-01-11T06:34:52.340Z,70.91
2023-01-11T06:37:20.511Z,70.89
2023-01-11T06:39:49.893Z,70.62
2023-01-11T06:42:17.858Z,71.03
2023-01-11T06:44:45.785Z,70.71
2023-01-11T06:47:13.694Z,70.27
2023-01-11T06:49:41.575Z,70.50
2023-01-11T06:52:09.819Z,69.88
2023-01-11T06:54:37.775Z,69.40
2023-01-11T06:57:07.276Z,69.63
2023-01-11T06:59:35.312Z,69.64
2023-01-11T07:02:03.312Z,69.43
2023-01-11T07:04:31.296Z,69.25
2023-01-11T07:07:00.012Z,69.05
2023-01-11T07:09:27.843Z,68.99
2023-01-11T07:11:55.741Z,68.74
2023-01-11T07:14:25.712Z,69.09
2023-01-11T07:16:53.546Z,68.97
2023-01-11T07:19:21.712Z,68.36
2023-01-11T07:21:50.491Z,67.85
2023-01-11T07:24:19.061Z,68.48
2023-01-11T07:26:46.803Z,67.62
2023-01-11T07:29:15.413Z,67.66
2023-01-11T07:31:44.924Z,67.77
2023-01-11T07:34:13.011Z,67.33
2023-01-11T07:36:41.107Z,67.26
2023-01-11T07:39:09.486Z,67.71
2023-01-11T07:41:55.452Z,67.48
2023-01-11T07:44:23.362Z,67.33
2023-01-11T07:46:52.695Z,67.75
2023-01-11T07:49:21.136Z,67.05
2023-01-11T07:51:48.944Z,66.57
2023-01-11T07:54:17.101Z,66.96
2023-01-11T07:56:45.001Z,66.80
2023-01-11T07:59:13.535Z,66.93
2023-01-11T08:01:41.552Z,66.44
2023-01-11T08:04:13.200Z,66.94
2023-01-11T08:06:41.534Z,66.39
2023-01-11T08:09:10.953Z,66.76
2023-01-11T08:11:56.711Z,66.66
2023-01-11T08:14:42.441Z,66.82
2023-01-11T08:17:14.597Z,66.39
2023-01-11T08:19:44.678Z,66.74
2023-01-11T08:22:12.516Z,66.56
2023-01-11T08:24:40.740Z,66.20
2023-01-11T08:27:08.555Z,66.11
2023-01-11T08:29:37.121Z,66.65
2023-01-11T08:32:06.613Z,66.51
2023-01-11T08:34:35.963Z,66.59
2023-01-11T08:37:05.462Z,66.79
2023-01-11T08:39:33.504Z,66.59
2023-01-11T08:42:03.067Z,66.69
2023-01-11T08:44:34.832Z,66.40
2023-01-11T08:47:03.405Z,66.57
2023-01-11T08:49:31.602Z,67.11
2023-01-11T08:51:59.445Z,66.83
2023-01-11T08:54:29.234Z,66.36
2023-01-11T08:56:57.141Z,66.46
2023-01-11T08:59:25.113Z,66.60
2023-01-11T09:01:53.325Z,66.66
2023-01-11T09:04:25.135Z,66.25
2023-01-11T09:06:53.879Z,66.24
2023-01-11T09:09:21.844Z,66.66
2023-01-11T09:11:59.383Z,66.47
2023-01-11T09:14:28.744Z,66.43
2023-01-11T09:16:57.376Z,66.35
2023-01-11T09:19:26.720Z,66.04
2023-01-11T09:21:57.931Z,66.39
2023-01-11T09:24:26.374Z,66.42
2023-01-11T09:26:55.807Z,66.90
2023-01-11T09:29:25.039Z,66.43
2023-01-11T09:31:53.513Z,66.63
2023-01-11T09:34:21.671Z,66.59
2023-01-11T09:36:49.702Z,66.18
2023-01-11T09:39:21.028Z,66.66
2023-01-11T09:42:13.229Z,66.43
2023-01-11T09:44:50.768Z,65.91
2023-01-11T09:47:26.675Z,65.79
2023-01-11T09:49:59.108Z,65.50
2023-01-11T09:52:33.063Z,65.30
2023-01-11T09:55:02.984Z,65.54
2023-01-11T09:57:46.446Z,65.39
2023-01-11T10:00:24.055Z,65.18
2023-01-11T10:03:11.212Z,65.66
2023-01-11T10:05:54.495Z,65.64
2023-01-11T10:18:29.797Z,64.82
2023-01-11T10:18:39.495Z,64.49
2023-01-11T10:20:35.509Z,64.60
2023-01-11T10:23:09.124Z,64.28
2023-01-11T10:25:48.064Z,64.86
2023-01-11T10:28:24.555Z,64.18
2023-01-11T10:31:08.125Z,64.67
2023-01-11T10:34:10.733Z,64.18
2023-01-11T10:37:04.844Z,63.54
2023-01-11T10:39:56.041Z,63.11
2023-01-11T10:42:28.671Z,63.02
2023-01-11T10:45:02.087Z,62.80
2023-01-11T10:47:39.224Z,62.99
2023-01-11T10:50:20.567Z,63.10
2023-01-11T10:52:55.645Z,63.07
2023-01-11T10:55:29.870Z,62.99
2023-01-11T10:58:11.761Z,63.21
2023-01-11T11:00:51.572Z,63.21
2023-01-11T11:03:45.279Z,62.40
2023-01-11T11:06:25.416Z,62.40
2023-01-11T11:08:57.997Z,62.91
2023-01-11T11:11:33.321Z,62.59
2023-01-11T11:14:04.742Z,62.51
2023-01-11T11:16:46.575Z,63.19
2023-01-11T11:19:21.011Z,63.38
2023-01-11T11:21:50.051Z,62.67
2023-01-11T11:24:23.769Z,62.34
2023-01-11T11:26:59.057Z,62.26
2023-01-11T11:29:30.697Z,62.44
2023-01-11T11:32:01.084Z,62.08
2023-01-11T11:34:30.997Z,62.09
2023-01-11T11:37:01.733Z,62.33
2023-01-11T11:39:31.998Z,61.37
2023-01-11T11:42:07.492Z,62.00
2023-01-11T11:44:36.428Z,61.58
2023-01-11T11:47:07.281Z,61.57
2023-01-11T11:49:38.372Z,62.26
2023-01-11T11:52:08.165Z,61.71
2023-01-11T11:54:41.062Z,61.64
2023-01-11T11:57:16.764Z,62.03
2023-01-11T11:59:47.458Z,61.51
2023-01-11T12:02:25.768Z,61.69
2023-01-11T12:04:57.703Z,61.72
2023-01-11T12:07:28.946Z,61.83
2023-01-11T12:10:00.987Z,61.85
2023-01-11T12:12:29.841Z,61.75
2023-01-11T12:15:20.597Z,61.23
2023-01-11T12:17:49.122Z,61.08
2023-01-11T12:20:33.052Z,61.40
2023-01-11T12:23:18.998Z,61.44
2023-01-11T12:25:58.582Z,61.35
2023-01-11T12:28:45.272Z,61.40
2023-01-11T12:31:21.534Z,61.44
2023-01-11T12:33:57.581Z,61.38
2023-01-11T12:36:38.762Z,60.73
2023-01-11T12:39:17.794Z,60.86
2023-01-11T12:42:05.066Z,59.06
2023-01-11T12:44:46.507Z,58.91
2023-01-11T12:47:32.748Z,59.59
2023-01-11T12:50:11.115Z,59.40
2023-01-11T12:52:56.068Z,58.74
2023-01-11T12:55:38.961Z,58.44
2023-01-11T12:58:15.187Z,58.96
2023-01-11T13:01:13.127Z,59.35
2023-01-11T13:04:10.022Z,57.61
2023-01-11T13:06:45.046Z,59.30
2023-01-11T13:09:30.238Z,58.18
2023-01-11T13:12:06.117Z,58.32
2023-01-11T13:14:48.071Z,58.72
2023-01-11T13:17:25.389Z,57.78
2023-01-11T13:20:03.419Z,58.05
2023-01-11T13:22:37.147Z,58.43
2023-01-11T13:25:18.317Z,57.39
2023-01-11T13:27:47.697Z,58.37
2023-01-11T13:30:17.999Z,58.04
2023-01-11T13:32:51.119Z,58.35
2023-01-11T13:35:23.006Z,58.73
2023-01-11T13:37:58.434Z,58.57
2023-01-11T13:40:29.859Z,58.81
2023-01-11T13:43:04.886Z,58.70
2023-01-11T13:45:38.118Z,59.92
2023-01-11T13:48:14.799Z,60.46
2023-01-11T13:50:48.439Z,60.69
2023-01-11T13:53:21.706Z,61.92
2023-01-11T13:55:58.857Z,62.03
2023-01-11T13:58:31.582Z,62.05
2023-01-11T14:01:07.514Z,61.26
2023-01-11T14:03:44.056Z,61.39
2023-01-11T14:06:30.559Z,61.90
2023-01-11T14:09:12.160Z,62.45
2023-01-11T14:11:49.239Z,63.59
2023-01-11T14:14:42.508Z,63.74
2023-01-11T14:17:40.383Z,63.76
2023-01-11T14:20:22.092Z,64.14
2023-01-11T14:23:00.726Z,64.50
2023-01-11T14:25:33.838Z,63.85
2023-01-11T14:28:31.678Z,63.60
2023-01-11T14:31:27.735Z,62.82
2023-01-11T14:34:27.387Z,62.93
2023-01-11T14:37:14.815Z,61.82
2023-01-11T14:40:03.190Z,62.20
2023-01-11T14:43:00.001Z,61.86
2023-01-11T14:45:53.461Z,61.48
2023-01-11T14:48:34.586Z,60.67
2023-01-11T14:51:32.471Z,60.72
2023-01-11T14:54:07.514Z,60.63
2023-01-11T14:56:37.083Z,60.75
2023-01-11T14:59:06.640Z,60.10
2023-01-11T15:02:08.093Z,60.50
2023-01-11T15:04:39.663Z,61.20
2023-01-11T15:07:25.304Z,60.31
2023-01-11T15:09:54.557Z,60.41
2023-01-11T15:12:24.718Z,60.67
2023-01-11T15:14:56.601Z,60.49
2023-01-11T15:17:45.437Z,60.09
2023-01-11T15:20:18.117Z,60.57
2023-01-11T15:22:46.986Z,61.09
2023-01-11T15:25:24.371Z,61.01
2023-01-11T15:27:53.081Z,60.39
2023-01-11T15:30:39.979Z,60.54
2023-01-11T15:33:30.041Z,60.92
2023-01-11T15:36:08.462Z,60.25
2023-01-11T15:38:42.486Z,60.41
2023-01-11T15:41:33.282Z,60.75
2023-01-11T15:44:28.886Z,60.33
2023-01-11T15:47:22.430Z,60.38
2023-01-11T15:50:35.226Z,60.64
2023-01-11T15:53:37.619Z,60.54
2023-01-11T15:56:49.762Z,60.80
2023-01-11T15:59:42.699Z,60.76
2023-01-11T16:02:39.181Z,60.65
2023-01-11T16:05:17.553Z,60.63
2023-01-11T16:07:55.233Z,60.38
2023-01-11T16:10:49.848Z,59.99
2023-01-11T16:13:46.111Z,60.50
2023-01-11T16:16:19.355Z,60.07
2023-01-11T16:18:50.998Z,59.86
2023-01-11T16:21:22.956Z,59.80
2023-01-11T16:23:51.118Z,59.84
2023-01-11T16:26:21.853Z,60.06
2023-01-11T16:28:52.637Z,60.20
2023-01-11T16:31:21.427Z,60.25
2023-01-11T16:33:50.110Z,60.40
2023-01-11T16:36:21.491Z,60.40
2023-01-11T16:38:56.827Z,60.05
2023-01-11T16:50:22.041Z,60.55
2023-01-11T16:52:53.891Z,60.43
2023-01-11T16:55:30.846Z,60.23
2023-01-11T16:58:02.841Z,60.48
2023-01-11T17:00:36.363Z,60.84
2023-01-11T17:03:21.505Z,60.69
2023-01-11T17:06:14.808Z,60.45
2023-01-11T17:08:44.591Z,60.75
2023-01-11T17:11:23.097Z,60.58
2023-01-11T17:14:18.283Z,60.76
2023-01-11T17:16:48.945Z,60.63
2023-01-11T17:19:18.645Z,60.48
2023-01-11T17:21:52.245Z,59.98
2023-01-11T17:24:25.750Z,59.74
2023-01-11T17:26:57.880Z,60.16
2023-01-11T17:29:30.812Z,60.09
2023-01-11T17:32:00.918Z,60.29
2023-01-11T17:34:32.642Z,60.26
2023-01-11T17:37:01.748Z,60.34
2023-01-11T17:39:33.508Z,60.57
2023-01-11T17:42:20.240Z,60.21
2023-01-11T17:45:09.595Z,60.75
2023-01-11T17:47:41.439Z,60.79
2023-01-11T17:50:20.751Z,61.07
2023-01-11T17:52:54.904Z,60.42
2023-01-11T17:55:25.462Z,60.76
2023-01-11T17:58:28.771Z,60.57
2023-01-11T18:01:20.431Z,60.53
2023-01-11T18:03:50.691Z,60.83
2023-01-11T18:06:25.511Z,60.17
2023-01-11T18:08:55.527Z,60.16
2023-01-11T18:11:26.459Z,60.06
2023-01-11T18:13:56.505Z,60.11
2023-01-11T18:16:26.535Z,59.98
2023-01-11T18:18:55.795Z,59.81
2023-01-11T18:21:41.700Z,59.79
2023-01-11T18:24:45.134Z,59.82
2023-01-11T18:27:18.963Z,59.81
2023-01-11T18:29:51.856Z,59.55
2023-01-11T18:32:22.130Z,59.61
2023-01-11T18:34:53.310Z,59.59
2023-01-11T18:37:22.372Z,59.41
2023-01-11T18:39:52.106Z,59.73
2023-01-11T18:42:23.202Z,59.78
2023-01-11T18:44:51.370Z,59.88
2023-01-11T18:47:22.880Z,59.28
2023-01-11T18:49:51.484Z,59.43
2023-01-11T18:52:20.489Z,59.61
2023-01-11T18:54:49.265Z,59.46
2023-01-11T18:57:17.454Z,59.52
2023-01-11T18:59:45.563Z,59.42
2023-01-11T19:04:50.109Z,59.35
2023-01-11T19:07:18.508Z,59.64
2023-01-11T19:09:47.024Z,58.98
2023-01-11T19:12:15.539Z,59.32
2023-01-11T19:14:43.576Z,59.31
2023-01-11T19:17:13.055Z,58.92
2023-01-11T19:19:41.663Z,59.33
2023-01-11T19:22:12.035Z,58.81
2023-01-11T19:24:41.154Z,59.42
2023-01-11T19:27:09.625Z,59.55
2023-01-11T19:29:37.640Z,58.99
2023-01-11T19:32:05.906Z,59.43
2023-01-11T19:34:34.281Z,58.88
2023-01-11T19:37:02.485Z,59.06
2023-01-11T19:39:32.311Z,59.89
2023-01-11T19:42:01.944Z,59.10
2023-01-11T19:44:33.112Z,59.21
2023-01-11T19:47:16.965Z,59.20
2023-01-11T19:49:45.797Z,59.43
2023-01-11T19:52:19.094Z,59.24
2023-01-11T19:54:49.530Z,59.12
2023-01-11T19:57:20.530Z,59.04
2023-01-11T19:59:49.706Z,59.48
2023-01-11T20:02:20.063Z,59.85
2023-01-11T20:04:48.291Z,60.38
2023-01-11T20:07:17.297Z,61.14
2023-01-11T20:09:45.580Z,61.83
2023-01-11T20:12:16.305Z,62.17
2023-01-11T20:14:46.520Z,62.50
2023-01-11T20:17:14.393Z,62.61
2023-01-11T20:19:43.423Z,62.96
2023-01-11T20:22:11.398Z,63.13
2023-01-11T20:24:39.294Z,62.55
2023-01-11T20:27:07.285Z,63.21
2023-01-11T20:29:37.331Z,63.44
2023-01-11T20:32:27.854Z,63.09
2023-01-11T20:34:54.276Z,62.80
2023-01-11T20:37:22.125Z,62.73
2023-01-11T20:39:49.846Z,63.03
2023-01-11T20:42:18.319Z,62.64
2023-01-11T20:44:47.784Z,62.54
2023-01-11T20:47:15.733Z,62.51
2023-01-11T20:49:44.091Z,61.99
2023-01-11T20:52:11.983Z,62.55
2023-01-11T20:54:42.242Z,62.54
2023-01-11T20:57:13.090Z,62.48
2023-01-11T20:59:41.001Z,62.99
2023-01-11T21:02:14.103Z,63.06
2023-01-11T21:04:42.000Z,62.83
2023-01-11T21:07:09.933Z,63.05
2023-01-11T21:09:38.426Z,63.66
2023-01-11T21:12:09.353Z,63.45
2023-01-11T21:14:37.199Z,63.27
2023-01-11T21:17:05.650Z,63.21
2023-01-11T21:19:34.948Z,63.39
2023-01-11T21:22:02.809Z,62.67
2023-01-11T21:24:31.433Z,62.99
2023-01-11T21:26:59.536Z,63.74
2023-01-11T21:29:27.384Z,63.54
2023-01-11T21:31:55.874Z,63.46
2023-01-11T21:34:24.346Z,63.58
2023-01-11T21:36:53.708Z,63.68
2023-01-11T21:39:22.249Z,63.83
2023-01-11T21:41:59.852Z,63.94
2023-01-11T21:44:34.130Z,64.51
2023-01-11T21:47:02.793Z,64.94
2023-01-11T21:49:30.707Z,64.84
2023-01-11T21:52:00.242Z,65.43
2023-01-11T21:54:28.513Z,65.34
2023-01-11T21:56:56.712Z,65.61
2023-01-11T21:59:25.406Z,65.76
2023-01-11T22:01:53.508Z,65.96
2023-01-11T22:04:22.037Z,65.54
2023-01-11T22:06:58.063Z,65.24
2023-01-11T22:09:28.485Z,65.31
2023-01-11T22:11:56.452Z,65.41
2023-01-11T22:14:25.028Z,65.58
2023-01-11T22:16:53.729Z,65.93
2023-01-11T22:19:21.494Z,66.49
2023-01-11T22:21:49.982Z,66.72
2023-01-11T22:24:17.937Z,67.02
2023-01-11T22:26:47.710Z,66.21
2023-01-11T22:29:20.467Z,66.91
2023-01-11T22:31:51.185Z,66.67
2023-01-11T22:34:19.502Z,66.70
2023-01-11T22:36:47.995Z,66.89
2023-01-11T22:39:19.226Z,67.45
2023-01-11T22:41:49.271Z,67.26
2023-01-11T22:44:17.485Z,67.47
2023-01-11T22:46:45.592Z,67.08
2023-01-11T22:49:14.408Z,67.22
2023-01-11T22:51:43.652Z,67.28
2023-01-11T22:54:12.788Z,67.52
2023-01-11T22:56:41.538Z,67.01
2023-01-11T22:59:11.243Z,67.89
2023-01-11T23:01:40.387Z,67.63
2023-01-11T23:04:12.403Z,67.90
2023-01-11T23:06:42.027Z,68.22
2023-01-11T23:09:16.421Z,68.08
2023-01-11T23:12:01.690Z,68.39
2023-01-11T23:14:33.540Z,68.88
2023-01-11T23:17:03.919Z,68.14
2023-01-11T23:19:32.515Z,68.06
2023-01-11T23:22:01.130Z,68.46
2023-01-11T23:24:28.843Z,67.92
2023-01-11T23:26:56.789Z,68.72
2023-01-11T23:29:25.477Z,68.55
2023-01-11T23:31:54.759Z,69.43
2023-01-11T23:34:22.553Z,68.98
2023-01-11T23:36:50.789Z,69.28
2023-01-11T23:39:19.984Z,69.18
2023-01-11T23:42:06.127Z,69.71
2023-01-11T23:44:34.242Z,69.07
2023-01-11T23:47:21.423Z,69.23
2023-01-11T23:49:50.755Z,69.26
2023-01-11T23:52:19.462Z,69.16
2023-01-11T23:54:48.323Z,69.15
2023-01-11T23:57:20.066Z,69.59
2023-01-11T23:59:48.411Z,69.88
